Time;durP1;ratioP1;P1;durP2;ratioP2;P2;SDS_P1;SDS_P2;PMS_P1;PMS_P2;Temp;Humidity;BMP_temperature;BMP_pressure;BME280_temperature;BME280_humidity;BME280_pressure;Samples;Min_cycle;Max_cycle;Signal;HPM_P1;HPM_P2
2022/07/24 02:16:04;;;;;;;13.80;12.50;;;;;;;18.11;100.00;96597.50;5070558;27;20563;-77
2022/07/24 02:18:31;;;;;;;12.40;11.10;;;;;;;18.12;100.00;96604.56;5076242;28;20209;-78
2022/07/24 02:20:58;;;;;;;16.23;11.23;;;;;;;18.05;100.00;96595.00;5078415;28;20203;-76
2022/07/24 02:23:25;;;;;;;13.97;11.30;;;;;;;18.02;100.00;96592.84;5066833;28;20204;-76
2022/07/24 02:25:52;;;;;;;13.30;11.90;;;;;;;17.99;100.00;96596.91;5077154;28;20196;-77
2022/07/24 02:28:19;;;;;;;13.00;11.50;;;;;;;17.99;100.00;96602.38;5065391;28;20447;-78
2022/07/24 02:30:46;;;;;;;12.77;11.57;;;;;;;18.00;100.00;96595.81;5066771;28;20201;-77
2022/07/24 02:33:15;;;;;;;12.23;10.93;;;;;;;18.01;100.00;96600.19;5068993;28;20292;-76
2022/07/24 02:35:42;;;;;;;14.10;11.80;;;;;;;17.98;100.00;96606.19;5075524;28;20221;-77
2022/07/24 02:38:09;;;;;;;16.83;11.37;;;;;;;18.02;100.00;96604.59;5069211;28;20224;-76
2022/07/24 02:40:36;;;;;;;14.57;11.13;;;;;;;17.99;100.00;96599.66;5067340;28;20208;-78
2022/07/24 02:43:03;;;;;;;12.67;10.93;;;;;;;18.01;100.00;96604.84;5070555;28;20209;-76
2022/07/24 02:45:31;;;;;;;13.77;11.33;;;;;;;18.03;100.00;96606.19;5070526;28;20209;-77
2022/07/24 02:47:58;;;;;;;18.43;11.40;;;;;;;18.08;100.00;96616.31;5065897;28;20209;-77
2022/07/24 02:50:31;;;;;;;12.77;11.00;;;;;;;18.06;100.00;96610.31;5066621;28;20201;-76
2022/07/24 02:52:59;;;;;;;15.47;11.97;;;;;;;18.07;100.00;96607.31;5112384;27;20205;-77
2022/07/24 02:55:28;;;;;;;13.57;11.60;;;;;;;18.03;100.00;96617.13;5066903;28;20217;-77
2022/07/24 02:57:56;;;;;;;13.53;10.53;;;;;;;18.04;100.00;96607.84;5070964;28;20314;-77
2022/07/24 03:00:23;;;;;;;12.27;11.10;;;;;;;18.06;100.00;96611.13;5072608;28;20201;-78
2022/07/24 03:02:51;;;;;;;13.17;10.37;;;;;;;18.08;100.00;96608.94;5072120;28;20198;-77
2022/07/24 03:05:18;;;;;;;13.90;10.97;;;;;;;18.14;100.00;96605.13;5062850;28;20220;-78
2022/07/24 03:07:46;;;;;;;13.50;11.40;;;;;;;18.13;100.00;96608.94;5074703;28;20208;-76
2022/07/24 03:10:15;;;;;;;12.83;10.20;;;;;;;18.20;100.00;96613.34;5069614;28;20285;-78
2022/07/24 03:12:42;;;;;;;12.50;11.20;;;;;;;18.19;100.00;96603.50;5065713;28;20212;-77
2022/07/24 03:15:11;;;;;;;14.00;10.33;;;;;;;18.19;100.00;96608.97;5063264;28;20225;-76
2022/07/24 03:17:38;;;;;;;12.70;10.90;;;;;;;18.21;100.00;96606.75;5073555;28;20206;-77
2022/07/24 03:20:07;;;;;;;15.07;11.00;;;;;;;18.19;100.00;96607.06;5065776;28;20198;-77
2022/07/24 03:22:34;;;;;;;12.83;10.43;;;;;;;18.12;100.00;96611.94;5067173;28;20205;-78
2022/07/24 03:25:02;;;;;;;16.00;10.90;;;;;;;18.09;100.00;96610.59;5070272;28;20288;-77
2022/07/24 03:27:29;;;;;;;11.93;10.70;;;;;;;18.15;100.00;96606.78;5055642;28;20206;-77
2022/07/24 03:29:56;;;;;;;12.70;11.17;;;;;;;18.21;100.00;96602.13;5063304;28;20287;-77
2022/07/24 03:32:23;;;;;;;16.60;11.13;;;;;;;18.19;100.00;96611.69;5059208;28;20198;-77
2022/07/24 03:34:50;;;;;;;13.37;10.43;;;;;;;18.09;100.00;96610.59;5059780;28;20285;-77
2022/07/24 03:37:17;;;;;;;13.27;11.60;;;;;;;18.03;100.00;96603.47;5064288;28;20199;-77
2022/07/24 03:39:44;;;;;;;12.67;10.80;;;;;;;18.00;100.00;96600.47;5052816;28;20203;-77
2022/07/24 03:42:13;;;;;;;11.23;9.77;;;;;;;18.06;100.00;96600.19;5053040;28;20221;-78
2022/07/24 03:44:40;;;;;;;15.20;10.80;;;;;;;18.03;100.00;96591.75;5050918;28;20210;-77
2022/07/24 03:47:07;;;;;;;14.73;11.00;;;;;;;18.11;100.00;96597.50;5053627;28;20229;-77
2022/07/24 03:49:34;;;;;;;13.70;10.30;;;;;;;18.06;100.00;96600.19;5052178;28;20293;-79
2022/07/24 03:52:01;;;;;;;14.87;10.67;;;;;;;18.07;100.00;96604.56;5059123;28;20213;-77
2022/07/24 03:54:28;;;;;;;14.00;11.33;;;;;;;18.07;100.00;96590.91;5057022;28;20222;-77
2022/07/24 03:56:55;;;;;;;12.77;10.77;;;;;;;17.97;100.00;96601.81;5058274;28;20221;-77
2022/07/24 03:59:24;;;;;;;12.53;10.70;;;;;;;18.05;100.00;96604.03;5055086;28;20202;-78
2022/07/24 04:01:51;;;;;;;12.10;10.80;;;;;;;18.08;100.00;96600.75;5061354;28;20206;-77
2022/07/24 04:04:18;;;;;;;12.13;10.93;;;;;;;18.12;100.00;96607.31;5056404;28;20206;-78
2022/07/24 04:06:45;;;;;;;11.97;10.60;;;;;;;18.08;100.00;96606.22;5050217;28;20206;-76
2022/07/24 04:09:13;;;;;;;12.63;10.73;;;;;;;18.05;100.00;96611.41;5057308;28;20213;-77
2022/07/24 04:11:41;;;;;;;12.23;10.23;;;;;;;18.09;100.00;96610.59;5051796;28;20214;-78
2022/07/24 04:14:08;;;;;;;11.30;10.10;;;;;;;18.06;100.00;96602.94;5057930;28;20245;-79
2022/07/24 04:16:36;;;;;;;12.07;10.53;;;;;;;18.10;100.00;96608.69;5048502;28;20218;-78
2022/07/24 04:19:03;;;;;;;14.13;11.00;;;;;;;18.02;100.00;96598.28;5059714;28;20268;-78
2022/07/24 04:21:31;;;;;;;10.90;9.80;;;;;;;18.02;100.00;96607.31;5055836;28;20220;-77
2022/07/24 04:23:57;;;;;;;13.67;10.30;;;;;;;18.08;100.00;96610.88;5055250;28;20204;-76
2022/07/24 04:26:26;;;;;;;14.60;10.80;;;;;;;18.07;100.00;96614.69;5047270;28;20297;-77
2022/07/24 04:28:53;;;;;;;12.30;10.67;;;;;;;18.05;100.00;96616.84;5058307;28;20320;-77
2022/07/24 04:31:20;;;;;;;13.83;10.73;;;;;;;18.06;100.00;96616.59;5054374;28;20494;-76
2022/07/24 04:33:48;;;;;;;11.83;10.33;;;;;;;18.07;100.00;96617.41;5055311;28;20229;-77
2022/07/24 04:36:15;;;;;;;17.43;11.00;;;;;;;18.08;100.00;96608.94;5058712;28;20285;-77
2022/07/24 04:38:42;;;;;;;13.27;10.77;;;;;;;18.01;100.00;96619.34;5052283;28;20202;-77
2022/07/24 04:41:10;;;;;;;11.70;10.37;;;;;;;17.96;100.00;96616.56;5054776;28;20247;-77
2022/07/24 04:43:37;;;;;;;15.60;10.37;;;;;;;18.00;100.00;96623.16;5056463;28;20201;-77
2022/07/24 04:46:04;;;;;;;11.23;10.03;;;;;;;18.05;100.00;96631.34;5054023;28;20341;-76
2022/07/24 04:48:32;;;;;;;11.80;10.60;;;;;;;18.08;100.00;96630.00;5048929;28;20206;-78
2022/07/24 04:51:01;;;;;;;12.20;10.90;;;;;;;18.03;100.00;96633.53;5051727;28;20209;-77
2022/07/24 04:53:30;;;;;;;12.13;10.20;;;;;;;18.02;100.00;96629.19;5058675;28;20289;-77
2022/07/24 04:55:58;;;;;;;13.00;11.20;;;;;;;17.97;100.00;96631.06;5055612;28;20257;-77
2022/07/24 04:58:26;;;;;;;11.17;9.97;;;;;;;18.03;100.00;96632.72;5055425;28;20198;-77
2022/07/24 05:00:53;;;;;;;11.53;10.40;;;;;;;18.06;100.00;96632.16;5049499;28;20202;-77
2022/07/24 05:03:20;;;;;;;13.90;10.33;;;;;;;18.02;100.00;96618.25;5051829;28;20210;-79
2022/07/24 05:05:47;;;;;;;11.73;10.53;;;;;;;18.03;100.00;96627.25;5051720;28;20212;-77
2022/07/24 05:08:15;;;;;;;12.10;10.90;;;;;;;17.94;100.00;96624.25;5057367;28;20212;-76
2022/07/24 05:10:43;;;;;;;13.33;10.50;;;;;;;17.86;100.00;96623.94;5054774;28;20198;-78
2022/07/24 05:13:10;;;;;;;12.40;11.17;;;;;;;17.87;100.00;96623.66;5053748;28;20213;-77
2022/07/24 05:15:37;;;;;;;12.37;11.07;;;;;;;17.91;100.00;96618.47;5055722;28;20252;-77
2022/07/24 05:18:04;;;;;;;12.90;11.60;;;;;;;17.91;100.00;96621.22;5048409;28;20206;-77
2022/07/24 05:20:32;;;;;;;13.43;10.80;;;;;;;17.87;100.00;96620.91;5058754;28;20439;-77
2022/07/24 05:22:59;;;;;;;12.67;10.60;;;;;;;17.86;100.00;96615.75;5057971;28;20202;-77
2022/07/24 05:25:28;;;;;;;12.77;11.47;;;;;;;17.87;100.00;96620.09;5056196;28;20209;-77
2022/07/24 05:27:55;;;;;;;12.97;11.57;;;;;;;17.85;100.00;96620.41;5057089;28;20204;-76
2022/07/24 05:30:22;;;;;;;14.63;11.60;;;;;;;17.89;100.00;96621.47;5054751;28;20214;-76
2022/07/24 05:32:49;;;;;;;17.53;12.10;;;;;;;17.89;100.00;96616.00;5048267;28;20237;-77
2022/07/24 05:35:16;;;;;;;12.23;10.93;;;;;;;17.95;100.00;96616.88;5051744;28;20218;-78
2022/07/24 05:37:44;;;;;;;12.40;11.10;;;;;;;18.00;100.00;96625.06;5061700;28;20206;-77
2022/07/24 05:40:12;;;;;;;11.87;9.90;;;;;;;18.02;100.00;96620.16;5051027;28;20213;-77
2022/07/24 05:42:40;;;;;;;12.73;10.67;;;;;;;18.08;100.00;96617.16;5055745;28;20205;-77
2022/07/24 05:45:08;;;;;;;13.73;11.30;;;;;;;18.09;100.00;96617.97;5048981;28;20218;-76
2022/07/24 05:47:38;;;;;;;13.67;11.17;;;;;;;18.07;100.00;96620.16;5052743;28;20221;-78
2022/07/24 05:50:08;;;;;;;11.83;10.63;;;;;;;18.10;100.00;96611.41;5057057;28;20256;-77
2022/07/24 05:52:36;;;;;;;12.53;10.60;;;;;;;18.17;100.00;96614.69;5052321;28;20210;-77
2022/07/24 05:55:05;;;;;;;12.77;10.93;;;;;;;18.11;100.00;96608.41;5060930;28;20305;-78
2022/07/24 05:57:32;;;;;;;12.40;10.13;;;;;;;18.04;100.00;96602.38;5061445;28;20235;-77
2022/07/24 06:00:01;;;;;;;14.13;11.20;;;;;;;18.05;100.00;96605.94;5058448;28;20237;-77
2022/07/24 06:02:39;;;;;;;13.50;10.77;;;;;;;18.09;100.00;96616.06;5050349;28;20198;-77
2022/07/24 06:05:06;;;;;;;12.30;10.90;;;;;;;18.08;100.00;96608.94;5051808;28;20217;-76
2022/07/24 06:07:33;;;;;;;12.97;10.70;;;;;;;18.19;100.00;96604.31;5052825;28;20209;-77
2022/07/24 06:10:01;;;;;;;11.37;10.27;;;;;;;18.22;100.00;96605.66;5049430;28;20214;-78
2022/07/24 06:12:28;;;;;;;11.93;10.60;;;;;;;18.27;100.00;96606.53;5056161;28;20194;-77
2022/07/24 06:14:55;;;;;;;13.20;10.10;;;;;;;18.30;100.00;96603.22;5043896;28;20226;-76
2022/07/24 06:17:23;;;;;;;11.33;10.23;;;;;;;18.32;100.00;96600.22;5057933;28;20202;-76
2022/07/24 06:19:50;;;;;;;11.17;10.10;;;;;;;18.40;100.00;96607.88;5050561;28;20220;-77
2022/07/24 06:22:17;;;;;;;11.20;9.70;;;;;;;18.42;100.00;96609.25;5050338;28;20210;-77
2022/07/24 06:24:44;;;;;;;11.63;10.43;;;;;;;18.46;100.00;96610.31;5043750;28;20214;-78
2022/07/24 06:27:11;;;;;;;11.70;10.50;;;;;;;18.47;100.00;96605.69;5051341;28;20341;-78
2022/07/24 06:29:38;;;;;;;11.17;9.97;;;;;;;18.51;100.00;96607.59;5054083;28;20198;-77
2022/07/24 06:32:06;;;;;;;13.47;10.03;;;;;;;18.50;100.00;96607.88;5045980;28;20206;-77
2022/07/24 06:34:34;;;;;;;11.07;9.93;;;;;;;18.56;100.00;96612.25;5049894;28;20198;-78
2022/07/24 06:37:01;;;;;;;12.20;10.97;;;;;;;18.61;100.00;96606.00;5052556;28;20221;-77
2022/07/24 06:39:28;;;;;;;12.13;10.32;;;;;;;18.68;100.00;96610.09;5057184;28;20209;-77
2022/07/24 06:41:55;;;;;;;11.30;10.10;;;;;;;18.73;100.00;96603.78;5051348;28;20208;-78
2022/07/24 06:44:25;;;;;;;12.50;10.57;;;;;;;18.78;100.00;96604.59;5054455;28;20281;-78
2022/07/24 06:46:52;;;;;;;13.87;10.90;;;;;;;18.74;100.00;96608.97;5050431;28;20218;-78
2022/07/24 06:49:19;;;;;;;13.55;10.70;;;;;;;18.70;100.00;96604.34;5049335;28;20233;-77
2022/07/24 06:51:48;;;;;;;12.27;10.23;;;;;;;18.64;100.00;96603.50;5048771;28;20202;-79
2022/07/24 06:54:15;;;;;;;12.37;10.63;;;;;;;18.68;100.00;96599.16;5048090;28;20210;-77
2022/07/24 06:56:42;;;;;;;12.03;10.77;;;;;;;18.68;100.00;96596.41;5050819;28;20234;-77
2022/07/24 06:59:09;;;;;;;12.00;10.60;;;;;;;18.69;100.00;96595.31;5051465;28;20213;-78
2022/07/24 07:01:36;;;;;;;11.30;9.97;;;;;;;18.75;100.00;96586.00;5058535;28;20288;-78
2022/07/24 07:04:03;;;;;;;11.80;10.30;;;;;;;18.84;100.00;96594.47;5055472;28;20214;-78
2022/07/24 07:06:30;;;;;;;11.80;10.57;;;;;;;18.90;100.00;96598.81;5056757;28;20212;-77
2022/07/24 07:08:59;;;;;;;11.90;10.40;;;;;;;18.89;100.00;96591.72;5054561;28;20206;-77
2022/07/24 07:11:26;;;;;;;14.80;10.45;;;;;;;18.90;100.00;96604.28;5054271;28;20198;-78
2022/07/24 07:13:53;;;;;;;12.10;10.82;;;;;;;18.93;100.00;96602.94;5054516;28;20304;-78
2022/07/24 07:16:20;;;;;;;12.27;10.30;;;;;;;18.99;100.00;96599.91;5061146;28;20217;-77
2022/07/24 07:18:47;;;;;;;14.15;12.52;;;;;;;19.17;100.00;96598.47;5063631;28;20217;-77
2022/07/24 07:21:14;;;;;;;13.02;11.40;;;;;;;19.45;100.00;96602.50;5062014;28;20222;-79
2022/07/24 07:23:42;;;;;;;10.02;9.05;;;;;;;19.73;100.00;96598.28;5055080;28;20321;-79
2022/07/24 07:26:10;;;;;;;10.88;9.77;;;;;;;20.13;100.00;96594.47;5056525;28;20217;-78
2022/07/24 07:28:37;;;;;;;12.77;10.10;;;;;;;20.54;100.00;96590.34;5062911;28;20210;-80
2022/07/24 07:31:05;;;;;;;12.30;9.77;;;;;;;20.97;100.00;96607.75;5055249;28;20213;-78
2022/07/24 07:33:32;;;;;;;10.75;9.65;;;;;;;21.47;100.00;96598.16;5059487;28;20296;-79
2022/07/24 07:36:00;;;;;;;11.25;9.57;;;;;;;21.77;100.00;96596.97;5062315;28;20244;-80
2022/07/24 07:38:27;;;;;;;11.52;10.07;;;;;;;22.06;100.00;96598.78;5059891;28;20210;-79
2022/07/24 07:40:55;;;;;;;11.18;10.07;;;;;;;22.38;100.00;96595.25;5056448;28;20205;-79
2022/07/24 07:43:24;;;;;;;16.02;10.18;;;;;;;22.56;100.00;96592.47;5059760;28;20251;-79
2022/07/24 07:45:51;;;;;;;13.75;10.93;;;;;;;22.82;100.00;96594.81;5057633;28;20193;-79
2022/07/24 07:48:18;;;;;;;12.38;11.07;;;;;;;23.07;100.00;96594.38;5060885;28;20236;-79
2022/07/24 07:50:45;;;;;;;14.65;11.63;;;;;;;23.31;100.00;96595.00;5052186;28;20205;-79
2022/07/24 07:53:12;;;;;;;14.13;11.60;;;;;;;23.58;100.00;96591.44;5059480;28;20210;-79
2022/07/24 07:55:39;;;;;;;14.63;11.70;;;;;;;23.80;99.83;96595.44;5056256;28;20213;-79
2022/07/24 07:58:06;;;;;;;15.63;11.95;;;;;;;24.03;96.89;96584.13;5055771;28;20198;-79
2022/07/24 08:00:35;;;;;;;12.48;11.10;;;;;;;24.29;96.00;96589.09;5052120;28;20413;-79
2022/07/24 08:03:02;;;;;;;12.70;11.40;;;;;;;24.37;95.24;96588.34;5062330;28;20201;-79
2022/07/24 08:05:30;;;;;;;13.57;10.98;;;;;;;24.38;94.89;96585.28;5059439;28;20203;-80
2022/07/24 08:07:57;;;;;;;12.32;11.13;;;;;;;24.49;95.15;96578.41;5051278;28;20206;-79
2022/07/24 08:10:24;;;;;;;13.13;10.55;;;;;;;24.48;97.70;96581.47;5053333;28;20202;-79
2022/07/24 08:12:51;;;;;;;11.40;10.30;;;;;;;24.59;99.70;96584.75;5058875;28;20213;-80
2022/07/24 08:15:18;;;;;;;15.73;10.98;;;;;;;24.76;100.00;96571.88;5049834;28;20248;-80
2022/07/24 08:17:51;;;;;;;13.32;9.80;;;;;;;25.02;97.43;96576.78;5056512;28;20232;-79
2022/07/24 08:20:19;;;;;;;11.82;10.63;;;;;;;25.15;93.75;96571.19;5056180;28;20202;-79
2022/07/24 08:22:46;;;;;;;11.75;10.52;;;;;;;25.37;90.44;96575.81;5055982;28;20281;-80
2022/07/24 08:25:14;;;;;;;12.10;9.70;;;;;;;25.46;92.12;96578.59;5056066;28;20275;-79
2022/07/24 08:27:41;;;;;;;12.25;10.85;;;;;;;25.46;86.11;96562.84;5051647;28;20221;-80
2022/07/24 08:30:09;;;;;;;12.68;11.35;;;;;;;25.57;89.38;96568.88;5051555;28;20296;-80
2022/07/24 08:32:37;;;;;;;14.80;11.45;;;;;;;25.55;87.86;96562.84;5064029;28;20200;-80
2022/07/24 08:35:06;;;;;;;12.13;10.90;;;;;;;25.60;85.19;96562.75;5057756;28;20229;-80
2022/07/24 08:37:37;;;;;;;12.82;11.45;;;;;;;25.78;85.09;96560.81;5060489;28;20201;-80
2022/07/24 08:40:04;;;;;;;11.63;10.43;;;;;;;25.88;83.03;96563.28;5054622;28;20214;-80
2022/07/24 08:42:32;;;;;;;11.10;10.10;;;;;;;25.99;81.67;96559.06;5063205;28;20210;-80
2022/07/24 08:44:59;;;;;;;13.43;10.15;;;;;;;26.08;81.72;96559.09;5054544;28;20201;-80
2022/07/24 08:47:27;;;;;;;11.27;10.07;;;;;;;26.15;85.02;96549.16;5050028;28;20290;-80
2022/07/24 08:49:56;;;;;;;11.73;9.98;;;;;;;26.17;80.63;96549.66;5055896;28;20232;-80
2022/07/24 08:52:25;;;;;;;11.85;10.65;;;;;;;26.29;80.66;96546.25;5062095;28;20218;-80
2022/07/24 08:54:53;;;;;;;10.68;9.65;;;;;;;26.46;80.22;96548.19;5050636;28;20214;-80
2022/07/24 08:57:20;;;;;;;11.00;9.90;;;;;;;26.44;76.65;96539.41;5049215;28;20222;-80
2022/07/24 08:59:47;;;;;;;11.40;10.35;;;;;;;26.37;75.98;96546.25;5050762;28;20206;-80
2022/07/24 09:02:15;;;;;;;10.70;9.60;;;;;;;26.40;75.63;96541.19;5051429;28;20196;-80
2022/07/24 09:04:44;;;;;;;11.02;9.75;;;;;;;26.55;75.65;96543.47;5056417;28;20299;-80
2022/07/24 09:07:13;;;;;;;12.05;9.70;;;;;;;26.58;76.75;96531.72;5062461;28;20213;-80
2022/07/24 09:09:44;;;;;;;10.40;9.43;;;;;;;26.79;74.06;96542.94;5066371;28;20308;-80
2022/07/24 09:12:14;;;;;;;11.00;9.90;;;;;;;26.77;73.57;96534.16;5049597;28;20205;-80
2022/07/24 09:14:42;;;;;;;10.65;9.40;;;;;;;26.83;73.39;96536.41;5053154;28;20249;-80
2022/07/24 09:17:13;;;;;;;13.27;10.23;;;;;;;26.53;76.60;96529.16;5057402;28;20217;-80
2022/07/24 09:19:56;;;;;;;10.40;9.35;;;;;;;26.70;74.98;96529.13;5061768;28;20205;-80
2022/07/24 09:22:32;;;;;;;11.30;9.73;;;;;;;26.63;74.84;96531.56;5061898;28;20239;-80
2022/07/24 09:25:10;;;;;;;10.80;9.70;;;;;;;26.64;75.82;96533.19;5058361;28;20267;-80
2022/07/24 09:27:39;;;;;;;11.02;9.98;;;;;;;26.89;78.02;96537.84;5054786;28;20320;-80
2022/07/24 09:30:08;;;;;;;14.57;10.05;;;;;;;27.13;75.59;96531.78;5052553;28;20204;-81
2022/07/24 09:32:36;;;;;;;12.00;9.15;;;;;;;27.24;72.16;96534.97;5049708;28;20210;-80
2022/07/24 09:35:04;;;;;;;12.60;9.45;;;;;;;27.38;71.61;96516.19;5049707;28;20210;-80
2022/07/24 09:37:32;;;;;;;10.50;9.50;;;;;;;27.24;70.96;96532.22;5053445;28;20309;-80
2022/07/24 09:40:11;;;;;;;11.18;10.07;;;;;;;27.41;70.79;96532.13;5050710;28;20213;-80
2022/07/24 09:42:42;;;;;;;10.32;9.38;;;;;;;27.54;70.97;96520.03;5050168;28;20247;-80
2022/07/24 09:45:11;;;;;;;10.77;9.70;;;;;;;27.82;72.11;96521.16;5048589;28;20212;-81
2022/07/24 09:47:39;;;;;;;10.20;9.20;;;;;;;28.05;71.12;96524.44;5059439;28;20312;-81
2022/07/24 09:50:15;;;;;;;11.57;9.77;;;;;;;27.85;69.73;96523.25;5056638;28;20307;-81
2022/07/24 09:52:43;;;;;;;10.75;9.75;;;;;;;27.84;70.48;96516.06;5062402;28;20208;-81
2022/07/24 09:55:29;;;;;;;10.90;9.90;;;;;;;27.93;70.10;96526.31;5061869;28;20205;-81
2022/07/24 09:57:58;;;;;;;15.55;11.80;;;;;;;27.96;69.94;96512.56;5049683;28;20205;-81
2022/07/24 10:00:25;;;;;;;10.70;9.80;;;;;;;28.10;70.77;96510.34;5045469;28;20198;-81
2022/07/24 10:02:58;;;;;;;11.70;10.60;;;;;;;27.99;71.57;96509.09;5058293;28;20221;-81
2022/07/24 10:05:28;;;;;;;10.93;9.93;;;;;;;28.16;73.71;96511.78;5053849;28;20217;-81
2022/07/24 10:07:57;;;;;;;11.60;10.48;;;;;;;28.18;71.00;96497.56;5049106;28;20317;-81
2022/07/24 10:10:28;;;;;;;12.75;10.95;;;;;;;28.12;72.91;96496.13;5053164;28;20274;-81
2022/07/24 10:12:57;;;;;;;12.05;10.88;;;;;;;28.20;74.15;96492.47;5061569;28;20209;-81
2022/07/24 10:15:30;;;;;;;12.32;11.05;;;;;;;28.30;73.56;96496.81;5050243;28;20241;-81
2022/07/24 10:18:16;;;;;;;12.60;11.27;;;;;;;28.37;73.99;96495.09;5059629;28;20204;-81
2022/07/24 10:20:45;;;;;;;12.05;10.95;;;;;;;28.48;73.52;96493.53;5050660;28;20210;-81
2022/07/24 10:23:22;;;;;;;12.98;11.73;;;;;;;28.43;74.62;96498.47;5049562;28;20213;-81
2022/07/24 10:25:55;;;;;;;12.18;10.93;;;;;;;28.39;73.07;96490.03;5056289;28;20277;-81
2022/07/24 10:28:39;;;;;;;11.65;10.60;;;;;;;28.43;74.61;96484.59;5060993;28;20336;-81
2022/07/24 10:31:08;;;;;;;12.63;11.30;;;;;;;28.64;74.92;96481.78;5049497;28;20233;-81
2022/07/24 10:33:38;;;;;;;12.63;11.38;;;;;;;28.59;73.91;96483.59;5055115;28;20194;-81
2022/07/24 10:36:14;;;;;;;12.48;11.27;;;;;;;28.59;73.01;96480.81;5049525;28;20209;-81
2022/07/24 10:38:46;;;;;;;11.75;10.73;;;;;;;28.63;72.73;96471.81;5053413;28;20205;-81
2022/07/24 10:41:21;;;;;;;12.27;11.15;;;;;;;28.67;73.23;96483.88;5055376;28;20218;-81
2022/07/24 10:44:17;;;;;;;11.82;10.68;;;;;;;28.76;72.28;96476.22;5053854;28;20236;-81
2022/07/24 10:47:01;;;;;;;13.27;11.20;;;;;;;28.94;73.56;96472.13;5053010;28;20225;-81
2022/07/24 10:49:47;;;;;;;13.38;11.80;;;;;;;29.02;72.18;96468.44;5060309;28;20209;-81
2022/07/24 10:52:27;;;;;;;12.55;11.32;;;;;;;29.09;73.60;96468.69;5067859;28;20205;-81
2022/07/24 10:55:31;;;;;;;11.68;10.45;;;;;;;29.20;71.30;96475.41;5060244;28;20266;-81
2022/07/24 10:58:01;;;;;;;11.77;10.80;;;;;;;29.35;70.65;96458.03;5064053;28;20197;-81
2022/07/24 11:00:34;;;;;;;12.15;10.98;;;;;;;29.40;68.81;96458.97;5059482;28;20210;-81
2022/07/24 11:03:03;;;;;;;11.65;10.55;;;;;;;29.32;69.36;96450.38;5064491;28;20239;-81
2022/07/24 11:05:33;;;;;;;11.95;10.77;;;;;;;29.42;68.24;96442.75;5070646;28;20198;-81
2022/07/24 11:08:33;;;;;;;12.77;11.45;;;;;;;29.47;68.70;96434.97;5052222;28;20271;-81
2022/07/24 11:11:07;;;;;;;12.82;10.90;;;;;;;29.59;69.67;96436.94;5055276;28;20209;-81
2022/07/24 11:13:43;;;;;;;12.75;11.45;;;;;;;29.61;67.29;96432.63;5058452;28;20201;-81
2022/07/24 11:16:22;;;;;;;12.50;11.35;;;;;;;29.65;67.78;96428.00;5065055;28;20205;-81
2022/07/24 11:19:22;;;;;;;12.23;11.02;;;;;;;29.71;68.62;96417.41;5049908;28;20198;-81
2022/07/24 11:22:01;;;;;;;12.52;11.23;;;;;;;29.69;67.64;96412.19;5062612;28;20210;-81
2022/07/24 11:24:30;;;;;;;12.20;11.05;;;;;;;29.76;68.72;96413.59;5061086;28;20228;-81
2022/07/24 11:26:58;;;;;;;12.55;11.25;;;;;;;29.94;67.65;96410.16;5064864;28;20223;-81
2022/07/24 11:29:27;;;;;;;11.95;10.85;;;;;;;29.98;66.13;96413.06;5062906;28;20255;-81
2022/07/24 11:31:58;;;;;;;12.43;11.23;;;;;;;30.04;66.54;96404.09;5054600;28;20198;-81
2022/07/24 11:34:26;;;;;;;12.00;10.98;;;;;;;30.02;66.32;96394.50;5057523;28;20202;-81
2022/07/24 11:36:54;;;;;;;12.13;10.95;;;;;;;30.09;69.07;96406.66;5052481;28;20205;-81
2022/07/24 11:39:28;;;;;;;11.93;10.82;;;;;;;30.21;68.17;96402.19;5058547;28;20270;-81
2022/07/24 11:41:57;;;;;;;13.25;11.20;;;;;;;30.20;68.43;96392.22;5064081;28;20259;-81
2022/07/24 11:44:26;;;;;;;13.38;10.52;;;;;;;30.13;66.66;96405.94;5057993;28;20208;-81
2022/07/24 11:46:54;;;;;;;14.02;11.80;;;;;;;30.13;65.64;96380.88;5057090;28;20217;-81
2022/07/24 11:49:22;;;;;;;12.90;11.70;;;;;;;30.14;65.34;96380.50;5069710;28;20271;-81
2022/07/24 11:51:50;;;;;;;12.40;10.77;;;;;;;30.11;65.54;96383.22;5059583;28;20225;-81
2022/07/24 11:54:23;;;;;;;12.90;11.70;;;;;;;30.03;64.98;96385.78;5065752;28;20194;-81
2022/07/24 11:56:50;;;;;;;12.57;11.27;;;;;;;30.23;67.07;96375.59;5056099;28;20224;-81
2022/07/24 11:59:25;;;;;;;13.05;11.27;;;;;;;30.37;66.01;96364.81;5057934;28;20203;-80
2022/07/24 12:01:57;;;;;;;12.45;11.23;;;;;;;30.41;65.43;96368.53;5068566;28;20484;-80
2022/07/24 12:04:25;;;;;;;12.98;11.77;;;;;;;30.52;65.26;96363.28;5054531;28;20206;-80
2022/07/24 12:06:53;;;;;;;12.23;10.98;;;;;;;30.73;63.40;96361.03;5052327;28;20225;-80
2022/07/24 12:09:20;;;;;;;12.38;11.32;;;;;;;30.76;64.36;96357.53;5055268;28;20269;-80
2022/07/24 12:11:47;;;;;;;12.52;11.40;;;;;;;30.89;63.68;96360.19;5060624;28;20233;-80
2022/07/24 12:14:16;;;;;;;12.23;11.02;;;;;;;30.84;61.66;96353.75;5054610;28;20245;-80
2022/07/24 12:16:43;;;;;;;12.82;11.35;;;;;;;30.93;61.24;96352.75;5056511;28;20198;-80
2022/07/24 12:19:15;;;;;;;13.27;11.88;;;;;;;30.98;59.44;96352.47;5059701;28;20210;-80
2022/07/24 12:21:45;;;;;;;12.15;10.95;;;;;;;30.77;60.30;96356.38;5054159;28;20220;-80
2022/07/24 12:24:12;;;;;;;12.50;11.27;;;;;;;30.76;61.38;96340.81;5062707;28;20276;-79
2022/07/24 12:26:50;;;;;;;12.45;11.23;;;;;;;30.82;60.92;96338.53;5056987;28;20193;-79
2022/07/24 12:29:17;;;;;;;12.40;11.05;;;;;;;30.97;59.91;96334.09;5067161;28;20205;-79
2022/07/24 12:31:44;;;;;;;12.43;11.00;;;;;;;31.07;61.65;96325.22;5051938;28;20202;-79
2022/07/24 12:34:12;;;;;;;11.95;10.73;;;;;;;31.37;61.28;96323.53;5058565;28;20210;-79
2022/07/24 12:36:40;;;;;;;12.00;10.80;;;;;;;31.51;60.08;96323.84;5055824;28;20217;-79
2022/07/24 12:39:09;;;;;;;12.50;11.20;;;;;;;31.55;61.00;96318.34;5050374;28;20203;-79
2022/07/24 12:41:44;;;;;;;12.80;11.55;;;;;;;31.68;60.05;96324.59;5055153;28;20212;-79
2022/07/24 12:44:13;;;;;;;11.77;10.77;;;;;;;31.68;60.31;96319.03;5051341;28;20315;-79
2022/07/24 12:46:42;;;;;;;12.35;11.00;;;;;;;31.65;56.89;96314.97;5053577;28;20204;-79
2022/07/24 12:49:11;;;;;;;11.98;10.88;;;;;;;31.59;58.04;96303.28;5062524;28;20244;-79
2022/07/24 12:51:50;;;;;;;11.88;10.77;;;;;;;31.66;57.26;96304.63;5051402;28;20210;-79
2022/07/24 12:54:21;;;;;;;13.55;11.82;;;;;;;31.70;59.47;96297.13;5061159;28;20206;-79
2022/07/24 12:56:49;;;;;;;12.05;10.88;;;;;;;31.59;58.35;96288.50;5057107;28;20272;-79
2022/07/24 12:59:24;;;;;;;12.50;11.30;;;;;;;31.59;59.56;96283.72;5055115;28;20194;-79
2022/07/24 13:01:53;;;;;;;12.05;11.05;;;;;;;31.75;58.38;96285.66;5058536;28;20251;-79
2022/07/24 13:04:23;;;;;;;12.15;11.05;;;;;;;31.98;58.73;96289.34;5046474;28;20296;-79
2022/07/24 13:06:51;;;;;;;12.02;10.93;;;;;;;32.20;59.12;96290.56;5049294;28;20201;-79
2022/07/24 13:09:21;;;;;;;11.80;10.70;;;;;;;32.09;57.92;96272.75;5058760;28;20225;-79
2022/07/24 13:11:50;;;;;;;11.90;10.82;;;;;;;32.16;58.22;96279.31;5052108;28;20186;-78
2022/07/24 13:14:19;;;;;;;12.73;11.13;;;;;;;32.02;58.29;96273.44;5052085;28;20239;-79
2022/07/24 13:16:48;;;;;;;12.38;11.27;;;;;;;32.02;58.14;96270.63;5052889;28;20194;-79
2022/07/24 13:19:15;;;;;;;12.63;11.48;;;;;;;31.90;59.29;96273.63;5052263;28;20209;-79
2022/07/24 13:21:43;;;;;;;12.82;11.52;;;;;;;31.98;58.44;96272.56;5056395;28;20198;-79
2022/07/24 13:24:14;;;;;;;11.80;10.75;;;;;;;31.90;58.08;96260.44;5053799;28;20273;-79
2022/07/24 13:26:44;;;;;;;12.52;11.43;;;;;;;31.90;58.41;96265.25;5049325;28;20214;-79
2022/07/24 13:29:12;;;;;;;12.27;11.18;;;;;;;32.08;58.59;96265.53;5052130;28;20344;-79
2022/07/24 13:31:40;;;;;;;12.73;11.50;;;;;;;31.96;57.71;96266.53;5052292;28;20201;-79
2022/07/24 13:34:08;;;;;;;12.60;11.50;;;;;;;32.05;56.87;96258.75;5050831;28;20199;-79
2022/07/24 13:36:35;;;;;;;13.02;11.80;;;;;;;32.17;57.35;96255.78;5057711;28;20206;-79
2022/07/24 13:39:04;;;;;;;12.68;11.57;;;;;;;32.21;56.12;96269.81;5051570;28;20208;-80